カーナーク/チューレ空軍基地 の空港の天気 - METARとTAF

チューレ空軍基地 ( BGTL / THU ) - グリーンランド カーナーク
飛行場実況気象(Metar)
観測時間08/22 12:56 ADT (08/22 15:56 UTC)
風向・風速西 2m/s
視程10km以上
天気現象
全天を覆う雲 雲底高度 1680m
気温7.4℃
湿度67%
気圧1012.2hPa
METARBGTL 221556Z AUTO 26004KT 9999 OVC055 07/02 A2994 RMK AO2 SLP122 T00740017 TSNO $
過去の天気等 Google飛行場航空写真 Wunderground天気予報

過去48時間のMETAR

飛行場予報(TAF)
データがありません